Terminal Aerodrome Forecast
Issued by NWS North Platte, NE

Home | Current Version | Previous Version | Text Only | Print | Product List | Glossary Off
Versions: 1 2 3 4 5 6 7 8 9 10 11 12

000
FTUS43 KLBF 271744 RRA
TAFVTN
TAF
KVTN 271744Z 2718/2818 19008KT P6SM FEW250
     FM280100 14006KT P6SM SKC
     FM280700 18007KT P6SM SKC WS010/21040KT
     FM281000 19009KT P6SM SKC=

USA.gov is the U.S. government's official web portal to all federal, state and local government web resources and services.